Time;durP1;ratioP1;P1;durP2;ratioP2;P2;SDS_P1;SDS_P2;PMS_P1;PMS_P2;Temp;Humidity;BMP_temperature;BMP_pressure;BME280_temperature;BME280_humidity;BME280_pressure;Samples;Min_cycle;Max_cycle;Signal;HPM_P1;HPM_P2
2021/08/01 00:00:38;;;;;;;2.90;1.30;;;;;;;18.45;59.80;100632.66;3572590;40;20057;-77
2021/08/01 00:03:06;;;;;;;2.10;0.88;;;;;;;18.36;59.61;100621.69;3567130;40;20360;-77
2021/08/01 00:05:34;;;;;;;2.97;1.10;;;;;;;18.44;59.46;100636.25;3574151;40;21716;-77
2021/08/01 00:08:03;;;;;;;2.83;0.90;;;;;;;18.41;59.16;100638.16;3572622;40;20082;-77
2021/08/01 00:10:30;;;;;;;5.30;1.30;;;;;;;18.33;59.52;100629.78;3567198;40;20052;-77
2021/08/01 00:12:59;;;;;;;4.88;1.45;;;;;;;18.34;59.83;100626.19;3574229;40;20057;-78
2021/08/01 00:15:26;;;;;;;4.18;1.50;;;;;;;18.33;59.49;100628.94;3576351;40;20085;-77
2021/08/01 00:17:55;;;;;;;3.90;1.63;;;;;;;18.32;59.34;100621.94;3567930;40;20055;-77
2021/08/01 00:20:22;;;;;;;2.95;1.20;;;;;;;18.25;59.06;100621.44;3573987;40;20090;-77
2021/08/01 00:22:49;;;;;;;3.13;1.38;;;;;;;18.21;58.43;100625.19;3572525;40;20076;-77
2021/08/01 00:25:19;;;;;;;2.83;1.03;;;;;;;18.20;58.94;100628.78;3576642;40;20452;-78
2021/08/01 00:27:49;;;;;;;4.40;1.60;;;;;;;18.14;59.39;100631.75;3560389;40;20289;-77
2021/08/01 00:30:16;;;;;;;2.53;0.90;;;;;;;18.03;59.39;100620.91;3552699;40;21280;-77
2021/08/01 00:32:43;;;;;;;3.30;1.17;;;;;;;18.04;59.05;100633.19;3553927;40;21001;-77
2021/08/01 00:35:12;;;;;;;2.53;0.98;;;;;;;17.99;59.33;100622.88;3576089;40;20052;-78
2021/08/01 00:38:03;;;;;;;4.88;1.20;;;;;;;18.04;59.37;100635.81;3556752;40;21060;-77
2021/08/01 00:40:31;;;;;;;2.42;1.15;;;;;;;17.91;59.64;100626.88;3574453;40;20446;-77
2021/08/01 00:42:57;;;;;;;;;;;;;;;17.94;59.07;100627.53;3575862;40;20056;-77
2021/08/01 00:45:24;;;;;;;4.05;1.38;;;;;;;17.84;59.31;100632.50;3578511;40;19995;-77
2021/08/01 00:47:54;;;;;;;2.78;1.33;;;;;;;17.83;59.36;100632.56;3575390;40;20049;-77
2021/08/01 00:50:21;;;;;;;2.95;1.10;;;;;;;17.79;59.63;100634.53;3570187;40;20306;-77
2021/08/01 00:52:50;;;;;;;1.88;0.73;;;;;;;17.74;59.60;100630.41;3578842;40;20065;-77
2021/08/01 00:55:20;;;;;;;2.45;1.20;;;;;;;17.72;59.63;100635.75;3567397;40;20073;-77
2021/08/01 00:57:48;;;;;;;2.92;1.10;;;;;;;17.62;59.44;100621.34;3579572;40;20048;-78
2021/08/01 01:00:35;;;;;;;1.98;1.05;;;;;;;17.66;59.33;100638.72;3562090;40;20080;-77
2021/08/01 01:03:13;;;;;;;3.35;1.40;;;;;;;17.64;59.33;100635.31;3577483;40;20089;-77
2021/08/01 01:05:51;;;;;;;3.67;1.30;;;;;;;17.66;59.59;100643.16;3565674;40;20061;-78
2021/08/01 01:08:28;;;;;;;3.08;1.27;;;;;;;17.60;59.41;100639.91;3546118;40;20092;-77
2021/08/01 01:11:23;;;;;;;3.78;1.20;;;;;;;17.56;59.01;100637.50;3550819;40;20420;-78
2021/08/01 01:13:56;;;;;;;3.92;1.40;;;;;;;17.52;59.25;100631.53;3555167;40;20061;-77
2021/08/01 01:16:26;;;;;;;4.22;1.30;;;;;;;17.50;59.18;100632.56;3583454;40;20056;-77
2021/08/01 01:18:58;;;;;;;2.97;1.30;;;;;;;17.50;59.69;100627.28;3565138;40;20057;-77
2021/08/01 01:21:58;;;;;;;3.92;1.30;;;;;;;17.47;59.41;100630.06;3570893;40;20743;-77
2021/08/01 01:24:39;;;;;;;3.75;1.40;;;;;;;17.44;59.14;100636.38;3564916;40;20053;-77
2021/08/01 01:27:41;;;;;;;2.53;1.10;;;;;;;17.40;59.02;100633.97;3571740;40;20057;-77
2021/08/01 01:30:09;;;;;;;4.55;1.58;;;;;;;17.32;59.14;100640.47;3560428;40;20056;-77
2021/08/01 01:32:53;;;;;;;2.47;1.10;;;;;;;17.30;59.26;100637.06;3578467;40;20056;-77
2021/08/01 01:35:31;;;;;;;5.93;1.45;;;;;;;17.26;59.33;100634.69;3559574;40;20108;-77
2021/08/01 01:37:59;;;;;;;3.58;1.27;;;;;;;17.21;59.61;100632.28;3564576;40;20068;-77
2021/08/01 01:40:46;;;;;;;4.95;1.50;;;;;;;17.20;59.23;100635.00;3566240;40;20076;-77
2021/08/01 01:43:35;;;;;;;2.78;1.17;;;;;;;17.21;59.52;100636.69;3566218;40;20402;-77
2021/08/01 01:46:11;;;;;;;4.70;1.67;;;;;;;17.20;59.37;100635.84;3565729;40;20057;-77
2021/08/01 01:48:43;;;;;;;3.47;1.48;;;;;;;17.19;59.60;100633.28;3578442;40;20472;-78
2021/08/01 01:51:12;;;;;;;3.33;1.55;;;;;;;17.08;59.06;100625.91;3566359;40;20740;-77
2021/08/01 01:53:41;;;;;;;3.60;1.77;;;;;;;17.14;59.42;100636.16;3570214;40;20053;-77
2021/08/01 01:56:13;;;;;;;4.95;1.48;;;;;;;17.14;59.44;100624.75;3556920;40;20056;-77
2021/08/01 01:58:42;;;;;;;4.10;1.42;;;;;;;17.13;59.52;100634.44;3577338;40;20390;-77
2021/08/01 02:01:35;;;;;;;2.90;1.30;;;;;;;17.17;59.42;100630.72;3577929;40;20053;-77
2021/08/01 02:04:08;;;;;;;4.68;1.95;;;;;;;17.12;58.57;100627.47;3570443;40;20045;-77
2021/08/01 02:06:54;;;;;;;3.55;1.30;;;;;;;17.09;59.25;100627.63;3559046;40;20520;-77
2021/08/01 02:10:01;;;;;;;5.53;1.52;;;;;;;17.10;59.00;100629.34;3565109;40;20065;-77
2021/08/01 02:12:54;;;;;;;1.77;0.90;;;;;;;17.10;58.71;100634.59;3576893;40;20064;-77
2021/08/01 02:15:54;;;;;;;2.55;1.10;;;;;;;17.08;58.98;100628.53;3575420;40;20040;-77
2021/08/01 02:18:54;;;;;;;2.47;1.25;;;;;;;17.06;58.91;100627.78;3564427;40;20060;-78
2021/08/01 02:21:23;;;;;;;6.38;1.67;;;;;;;17.01;58.49;100629.78;3568292;40;20468;-78
2021/08/01 02:23:56;;;;;;;5.07;1.90;;;;;;;16.99;58.63;100626.38;3556525;40;20078;-77
2021/08/01 02:26:31;;;;;;;4.07;1.40;;;;;;;16.92;58.67;100619.69;3566602;40;20063;-77
2021/08/01 02:28:58;;;;;;;4.90;1.98;;;;;;;16.91;58.77;100621.47;3582261;40;20322;-77
2021/08/01 02:31:27;;;;;;;4.13;1.60;;;;;;;16.95;58.92;100630.09;3570227;40;20081;-77
2021/08/01 02:33:55;;;;;;;3.22;1.40;;;;;;;16.91;58.93;100633.81;3565368;40;20049;-77
2021/08/01 02:36:24;;;;;;;4.50;1.58;;;;;;;16.94;58.52;100641.59;3583564;40;20109;-78
2021/08/01 02:38:57;;;;;;;5.35;1.63;;;;;;;16.89;58.64;100633.06;3579208;40;20069;-77
2021/08/01 02:41:25;;;;;;;3.67;1.58;;;;;;;16.88;58.36;100633.97;3568301;40;20081;-77
2021/08/01 02:43:52;;;;;;;;;;;;;;;16.88;58.66;100633.97;3564557;40;20057;-77
2021/08/01 02:46:27;;;;;;;2.80;1.27;;;;;;;16.83;58.34;100642.13;3566460;40;20058;-77
2021/08/01 02:48:58;;;;;;;4.32;1.67;;;;;;;16.79;57.90;100638.78;3563459;40;20053;-78
2021/08/01 02:51:29;;;;;;;2.67;1.08;;;;;;;16.72;58.10;100632.09;3568118;40;20068;-77
2021/08/01 02:53:57;;;;;;;2.97;1.00;;;;;;;16.69;58.07;100632.22;3575363;40;20053;-77
2021/08/01 02:56:30;;;;;;;3.58;1.70;;;;;;;16.69;58.27;100634.84;3578590;40;21136;-78
2021/08/01 02:59:01;;;;;;;3.55;1.30;;;;;;;16.66;58.71;100634.16;3564642;40;20076;-77
2021/08/01 03:01:31;;;;;;;4.38;1.75;;;;;;;16.64;58.69;100636.88;3570290;40;20489;-77
2021/08/01 03:03:59;;;;;;;3.00;1.30;;;;;;;16.57;58.36;100625.78;3567012;40;20068;-76
2021/08/01 03:06:34;;;;;;;3.83;1.45;;;;;;;16.63;58.11;100637.81;3579101;40;20735;-77
2021/08/01 03:09:08;;;;;;;4.97;2.03;;;;;;;16.61;58.14;100637.84;3564811;40;20061;-77
2021/08/01 03:11:37;;;;;;;5.40;1.75;;;;;;;16.61;58.27;100632.59;3561145;40;20061;-77
2021/08/01 03:14:07;;;;;;;4.05;1.50;;;;;;;16.59;58.59;100639.72;3575850;40;20139;-77
2021/08/01 03:16:34;;;;;;;4.10;1.30;;;;;;;16.56;58.69;100633.75;3569988;40;20056;-77
2021/08/01 03:19:09;;;;;;;3.35;1.38;;;;;;;16.59;58.25;100634.44;3560553;40;20061;-78
2021/08/01 03:21:40;;;;;;;3.72;1.67;;;;;;;16.55;58.84;100627.63;3565149;40;21047;-78
2021/08/01 03:24:22;;;;;;;3.75;1.73;;;;;;;16.58;58.16;100637.16;3571253;40;20338;-77
2021/08/01 03:26:54;;;;;;;5.47;1.52;;;;;;;16.49;58.60;100621.78;3573864;40;20065;-77
2021/08/01 03:29:38;;;;;;;5.45;2.05;;;;;;;16.58;57.89;100627.47;3576371;40;20058;-78
2021/08/01 03:32:17;;;;;;;5.78;1.73;;;;;;;16.61;58.01;100632.59;3564355;40;20064;-77
2021/08/01 03:34:53;;;;;;;3.97;1.73;;;;;;;16.58;57.26;100637.16;3566207;40;20077;-78
2021/08/01 03:37:27;;;;;;;4.18;1.80;;;;;;;16.57;56.85;100635.44;3568371;40;20777;-77
2021/08/01 03:40:15;;;;;;;2.97;1.40;;;;;;;16.55;57.30;100642.59;3565065;40;20053;-77
2021/08/01 03:42:45;;;;;;;4.32;1.88;;;;;;;16.51;56.76;100641.00;3575427;40;20345;-77
2021/08/01 03:45:17;;;;;;;4.97;1.50;;;;;;;16.48;56.62;100635.91;3581042;40;21104;-78
2021/08/01 03:47:45;;;;;;;4.40;1.58;;;;;;;16.41;56.77;100635.31;3556753;40;20071;-77
2021/08/01 03:50:19;;;;;;;4.93;1.60;;;;;;;16.38;56.95;100635.50;3569054;40;20696;-77
2021/08/01 03:52:46;;;;;;;2.55;1.40;;;;;;;16.35;56.30;100636.47;3557229;40;20056;-77
2021/08/01 03:55:16;;;;;;;3.63;1.70;;;;;;;16.32;56.91;100636.66;3579135;40;20106;-77
2021/08/01 03:57:43;;;;;;;3.83;1.27;;;;;;;16.23;56.65;100631.81;3555285;40;20081;-77
2021/08/01 04:00:19;;;;;;;3.92;1.60;;;;;;;16.32;57.50;100647.19;3580093;40;20138;-77
2021/08/01 04:02:47;;;;;;;4.38;1.75;;;;;;;16.29;56.72;100649.94;3565532;40;20076;-77
2021/08/01 04:05:18;;;;;;;5.57;1.48;;;;;;;16.27;56.17;100649.19;3569955;40;20060;-77
2021/08/01 04:07:45;;;;;;;3.83;1.63;;;;;;;16.24;56.58;100649.31;3562781;40;20049;-77
2021/08/01 04:10:16;;;;;;;5.72;1.58;;;;;;;16.24;57.01;100644.03;3570750;40;20634;-77
2021/08/01 04:12:43;;;;;;;5.13;1.75;;;;;;;16.22;56.19;100647.66;3577779;40;20060;-77
2021/08/01 04:15:13;;;;;;;3.42;1.48;;;;;;;16.22;56.86;100645.91;3579383;40;20052;-77
2021/08/01 04:17:43;;;;;;;3.40;1.42;;;;;;;16.18;55.98;100646.97;3578939;40;20053;-77
2021/08/01 04:20:11;;;;;;;3.75;1.40;;;;;;;16.20;55.75;100662.69;3557419;40;20060;-77
2021/08/01 04:22:38;;;;;;;4.38;1.60;;;;;;;16.15;55.10;100662.91;3578212;40;20062;-78
2021/08/01 04:25:08;;;;;;;;;;;;;;;16.20;56.92;100668.81;3565070;40;20068;-77
2021/08/01 04:27:37;;;;;;;3.13;1.20;;;;;;;16.07;55.07;100658.00;3576650;40;19960;-77
2021/08/01 04:30:04;;;;;;;2.83;1.15;;;;;;;16.07;55.70;100667.69;3579510;40;20654;-78
2021/08/01 04:32:33;;;;;;;1.75;0.95;;;;;;;16.09;56.21;100671.09;3576257;40;20049;-78
2021/08/01 04:35:02;;;;;;;2.58;1.23;;;;;;;16.04;55.90;100662.56;3566994;40;20072;-77
2021/08/01 04:37:34;;;;;;;4.15;1.58;;;;;;;16.09;56.03;100671.09;3578983;40;20053;-77
2021/08/01 04:40:05;;;;;;;3.47;1.40;;;;;;;16.04;54.90;100666.03;3555743;40;20346;-77
2021/08/01 04:42:32;;;;;;;2.38;1.30;;;;;;;15.92;55.76;100653.44;3577515;40;21033;-77
2021/08/01 04:45:06;;;;;;;2.97;1.33;;;;;;;16.08;55.56;100679.94;3574507;40;20053;-78
2021/08/01 04:47:33;;;;;;;2.38;1.25;;;;;;;15.87;55.33;100654.59;3556478;40;20061;-77
2021/08/01 04:50:00;;;;;;;2.77;1.30;;;;;;;15.96;55.71;100664.69;3582589;40;20089;-77
2021/08/01 04:52:28;;;;;;;1.88;0.98;;;;;;;15.98;54.79;100673.38;3571335;40;20258;-77
2021/08/01 04:54:54;;;;;;;;;;;;;;;16.05;56.40;100678.28;3571560;40;20438;-77
2021/08/01 04:57:25;;;;;;;2.42;1.20;;;;;;;16.01;55.92;100676.72;3579592;40;19985;-77
2021/08/01 04:59:51;;;;;;;2.67;1.20;;;;;;;15.91;55.89;100656.97;3577563;40;20041;-77
2021/08/01 05:02:21;;;;;;;2.15;1.00;;;;;;;15.91;55.93;100666.66;3567003;40;20055;-77
2021/08/01 05:04:48;;;;;;;2.22;0.85;;;;;;;15.93;55.81;100672.72;3578934;40;20681;-77
2021/08/01 05:07:15;;;;;;;1.85;0.90;;;;;;;15.83;55.61;100667.88;3566951;40;20057;-77
2021/08/01 05:09:42;;;;;;;4.25;1.25;;;;;;;15.83;55.63;100665.25;3563533;40;20108;-78
2021/08/01 05:12:17;;;;;;;2.22;1.20;;;;;;;15.97;56.01;100685.69;3574462;40;20057;-77
2021/08/01 05:14:49;;;;;;;2.28;1.08;;;;;;;16.04;56.24;100697.66;3565367;40;20373;-77
2021/08/01 05:17:16;;;;;;;2.88;1.27;;;;;;;16.02;55.63;100699.50;3575949;40;20065;-77
2021/08/01 05:19:47;;;;;;;4.03;1.52;;;;;;;15.98;55.48;100692.66;3570048;40;20050;-77
2021/08/01 05:22:14;;;;;;;3.88;1.52;;;;;;;15.85;55.65;100672.22;3574577;40;20071;-77
2021/08/01 05:24:42;;;;;;;3.15;1.00;;;;;;;16.04;56.12;100709.97;3574718;40;20049;-77
2021/08/01 05:27:09;;;;;;;3.15;1.20;;;;;;;16.03;55.77;100708.28;3551107;40;20108;-77
2021/08/01 05:29:39;;;;;;;3.22;1.40;;;;;;;16.02;56.04;100714.47;3578172;40;20388;-77
2021/08/01 05:32:07;;;;;;;3.85;1.23;;;;;;;16.03;55.67;100722.28;3559999;40;20722;-77
2021/08/01 05:34:39;;;;;;;3.38;0.95;;;;;;;16.01;56.20;100715.38;3572554;40;20068;-77
2021/08/01 05:37:07;;;;;;;1.55;0.88;;;;;;;15.97;56.28;100712.03;3566555;40;20115;-77
2021/08/01 05:39:37;;;;;;;3.95;1.38;;;;;;;16.04;56.11;100720.50;3576120;40;20051;-77
2021/08/01 05:42:05;;;;;;;4.75;1.73;;;;;;;16.01;55.65;100715.38;3568720;40;20071;-77
2021/08/01 05:44:33;;;;;;;3.75;1.60;;;;;;;16.06;56.12;100726.56;3572114;40;20459;-77
2021/08/01 05:47:07;;;;;;;2.95;1.20;;;;;;;16.06;56.02;100729.19;3570500;40;20057;-77
2021/08/01 05:49:34;;;;;;;4.63;1.50;;;;;;;16.02;55.38;100732.91;3575136;40;20060;-77
2021/08/01 05:52:03;;;;;;;2.67;1.20;;;;;;;16.02;55.71;100732.91;3583282;40;20049;-77
2021/08/01 05:54:30;;;;;;;3.95;1.20;;;;;;;15.96;55.88;100723.47;3573546;40;20049;-77
2021/08/01 05:57:01;;;;;;;3.70;1.30;;;;;;;16.05;56.08;100738.00;3569633;40;20759;-77
2021/08/01 05:59:29;;;;;;;3.03;1.33;;;;;;;16.04;55.95;100736.31;3555875;40;20435;-77
2021/08/01 06:01:56;;;;;;;3.97;1.73;;;;;;;16.06;55.79;100739.72;3581588;40;20065;-77
2021/08/01 06:04:23;;;;;;;2.50;1.30;;;;;;;16.02;55.52;100738.19;3571618;40;20056;-77
2021/08/01 06:06:50;;;;;;;3.10;1.45;;;;;;;16.05;55.49;100738.00;3572321;40;20055;-77
2021/08/01 06:09:17;;;;;;;2.58;1.17;;;;;;;16.04;55.59;100746.84;3580800;40;20733;-77
2021/08/01 06:11:43;;;;;;;3.65;1.25;;;;;;;16.06;55.88;100745.00;3575565;40;20056;-77
2021/08/01 06:14:17;;;;;;;2.53;1.10;;;;;;;16.11;56.27;100748.28;3572459;40;20422;-77
2021/08/01 06:16:45;;;;;;;3.53;1.10;;;;;;;16.11;56.16;100743.00;3554900;40;20284;-77
2021/08/01 06:19:12;;;;;;;3.20;1.13;;;;;;;16.07;55.71;100730.91;3560587;40;20155;-77
2021/08/01 06:21:42;;;;;;;2.47;1.13;;;;;;;16.15;55.38;100739.31;3569348;40;20081;-77
2021/08/01 06:24:10;;;;;;;2.53;1.10;;;;;;;16.15;55.80;100744.59;3562507;40;20052;-77
2021/08/01 06:26:39;;;;;;;3.37;1.30;;;;;;;16.17;55.76;100742.75;3578923;40;20157;-77
2021/08/01 06:29:11;;;;;;;2.35;1.05;;;;;;;16.23;54.93;100747.75;3577222;40;20264;-77
2021/08/01 06:31:37;;;;;;;2.85;1.30;;;;;;;16.15;55.02;100730.56;3568936;40;20108;-77
2021/08/01 06:34:04;;;;;;;5.18;1.27;;;;;;;16.16;55.38;100735.75;3560355;40;20173;-77
2021/08/01 06:36:34;;;;;;;3.40;1.42;;;;;;;16.28;54.71;100747.53;3577963;40;20108;-77
2021/08/01 06:39:10;;;;;;;3.13;1.17;;;;;;;16.35;55.68;100749.81;3577103;40;20065;-77
2021/08/01 06:41:36;;;;;;;3.08;1.15;;;;;;;16.26;55.11;100736.19;3565668;40;20057;-77
2021/08/01 06:44:03;;;;;;;6.23;1.13;;;;;;;16.35;54.48;100746.31;3562514;40;20069;-77
2021/08/01 06:46:32;;;;;;;3.05;1.33;;;;;;;16.44;55.16;100750.31;3576408;40;20057;-76
2021/08/01 06:49:00;;;;;;;3.00;1.38;;;;;;;16.39;54.95;100739.13;3578005;40;20409;-77
2021/08/01 06:51:26;;;;;;;2.83;1.20;;;;;;;16.43;54.96;100740.72;3565064;40;20085;-77
2021/08/01 06:53:53;;;;;;;3.15;1.27;;;;;;;16.49;54.09;100743.06;3583656;40;20832;-77
2021/08/01 06:56:21;;;;;;;3.77;1.30;;;;;;;16.56;54.46;100749.72;3571662;40;20089;-78
2021/08/01 06:58:51;;;;;;;4.30;1.10;;;;;;;16.59;54.82;100754.88;3577857;40;20648;-77
2021/08/01 07:01:18;;;;;;;2.15;1.00;;;;;;;16.55;54.06;100748.03;3570678;40;20423;-77
2021/08/01 07:03:45;;;;;;;1.98;0.82;;;;;;;16.61;54.14;100745.09;3566620;40;20052;-77
2021/08/01 07:06:15;;;;;;;4.00;1.70;;;;;;;16.72;54.15;100752.53;3577927;40;20071;-77
2021/08/01 07:08:50;;;;;;;2.55;1.23;;;;;;;16.76;54.28;100743.56;3572761;40;20052;-78
2021/08/01 07:11:17;;;;;;;1.65;0.88;;;;;;;16.73;54.12;100749.00;3565169;40;20071;-77
2021/08/01 07:13:47;;;;;;;2.83;1.27;;;;;;;16.74;53.67;100743.63;3578724;40;20055;-77
2021/08/01 07:16:14;;;;;;;4.55;1.77;;;;;;;16.80;52.97;100748.63;3576322;40;20444;-77
2021/08/01 07:18:41;;;;;;;2.85;1.30;;;;;;;16.87;53.54;100754.44;3558887;40;20057;-77
2021/08/01 07:21:12;;;;;;;7.22;1.30;;;;;;;16.90;53.41;100748.19;3565888;40;20806;-77
2021/08/01 07:23:39;;;;;;;5.05;1.40;;;;;;;16.96;52.72;100758.44;3572316;40;20401;-77
2021/08/01 07:26:09;;;;;;;5.83;1.50;;;;;;;17.05;53.00;100758.84;3568038;40;20047;-78
2021/08/01 07:28:38;;;;;;;2.75;1.30;;;;;;;17.06;53.11;100754.41;3561592;40;20045;-77
2021/08/01 07:31:06;;;;;;;3.22;1.35;;;;;;;17.07;52.77;100759.59;3563341;40;20053;-76
2021/08/01 07:33:33;;;;;;;3.50;0.82;;;;;;;17.12;52.92;100759.38;3569905;40;20073;-77
2021/08/01 07:36:04;;;;;;;4.00;1.53;;;;;;;17.19;53.18;100766.09;3578661;40;20089;-77
2021/08/01 07:38:32;;;;;;;3.65;1.45;;;;;;;17.20;53.46;100767.78;3563922;40;20303;-78
2021/08/01 07:40:59;;;;;;;;;;;;;;;17.31;54.72;100764.63;3569082;40;20134;-77
2021/08/01 07:43:26;;;;;;;2.45;1.05;;;;;;;17.29;52.75;100772.63;3567669;40;20333;-77
2021/08/01 07:45:54;;;;;;;3.87;1.23;;;;;;;17.34;52.90;100770.63;3572617;40;20049;-77
2021/08/01 07:48:20;;;;;;;;;;;;;;;17.49;54.26;100773.44;3575770;40;20056;-78
2021/08/01 07:50:49;;;;;;;2.83;1.23;;;;;;;17.49;53.10;100776.91;3576073;40;19984;-77
2021/08/01 07:53:15;;;;;;;2.88;1.23;;;;;;;17.56;52.66;100774.81;3542681;40;20068;-77
2021/08/01 07:55:43;;;;;;;4.05;1.30;;;;;;;17.62;50.52;100774.50;3575347;40;20753;-77
2021/08/01 07:58:10;;;;;;;2.75;1.00;;;;;;;17.59;52.04;100766.75;3578063;40;20092;-77
2021/08/01 08:00:38;;;;;;;4.10;1.17;;;;;;;17.72;52.38;100773.09;3562967;40;20476;-78
2021/08/01 08:03:06;;;;;;;2.22;0.90;;;;;;;17.78;51.66;100775.44;3572421;40;20446;-77
2021/08/01 08:05:33;;;;;;;2.92;0.95;;;;;;;17.70;52.04;100761.75;3564735;40;20736;-78
2021/08/01 08:08:03;;;;;;;5.00;1.23;;;;;;;17.93;51.32;100786.16;3577313;40;20061;-78
2021/08/01 08:10:30;;;;;;;2.70;1.02;;;;;;;17.92;52.01;100782.66;3574896;40;20564;-78
2021/08/01 08:12:57;;;;;;;2.77;1.20;;;;;;;17.99;51.68;100789.31;3564272;40;20064;-76
2021/08/01 08:15:26;;;;;;;2.10;1.10;;;;;;;18.06;50.90;100779.31;3563542;40;20554;-77
2021/08/01 08:17:56;;;;;;;2.17;1.05;;;;;;;18.14;50.72;100783.25;3575644;40;20090;-77
2021/08/01 08:20:23;;;;;;;3.65;1.40;;;;;;;18.15;50.12;100789.41;3554008;40;20061;-77
2021/08/01 08:22:51;;;;;;;2.20;1.00;;;;;;;18.19;49.68;100787.44;3568482;40;20404;-77
2021/08/01 08:25:18;;;;;;;3.25;1.10;;;;;;;18.23;49.49;100776.63;3563765;40;20759;-77
2021/08/01 08:27:45;;;;;;;2.35;1.00;;;;;;;18.27;49.81;100767.59;3580236;40;20069;-77
2021/08/01 08:30:14;;;;;;;2.45;1.23;;;;;;;18.40;49.82;100779.22;3560679;40;20097;-77
2021/08/01 08:32:41;;;;;;;3.15;1.02;;;;;;;18.47;50.39;100785.03;3572332;40;20087;-77
2021/08/01 08:35:09;;;;;;;2.92;1.00;;;;;;;18.55;50.22;100781.94;3576183;40;20069;-78
2021/08/01 08:37:49;;;;;;;3.65;1.17;;;;;;;18.64;50.30;100771.72;3571851;40;20076;-77
2021/08/01 08:40:24;;;;;;;2.55;1.08;;;;;;;18.74;50.92;100777.41;3546831;40;20096;-77
2021/08/01 08:42:52;;;;;;;2.78;1.40;;;;;;;18.71;48.60;100769.66;3568443;40;20377;-77
2021/08/01 08:45:22;;;;;;;1.80;0.90;;;;;;;18.83;50.52;100776.91;3567032;40;20097;-78
2021/08/01 08:47:52;;;;;;;2.67;1.25;;;;;;;18.90;48.49;100772.09;3557319;40;20234;-77
2021/08/01 08:50:21;;;;;;;2.78;0.98;;;;;;;18.92;48.44;100768.44;3572123;40;20073;-78
2021/08/01 08:52:53;;;;;;;2.78;1.10;;;;;;;19.02;48.47;100770.59;3566617;40;20516;-77
2021/08/01 08:55:24;;;;;;;3.75;1.10;;;;;;;19.13;49.76;100784.06;3571764;40;20101;-77
2021/08/01 08:57:56;;;;;;;3.30;1.00;;;;;;;19.09;47.06;100770.13;3566608;40;20063;-77
2021/08/01 09:00:26;;;;;;;3.58;1.20;;;;;;;19.25;48.34;100779.84;3573410;40;20064;-76
2021/08/01 09:02:54;;;;;;;2.67;1.00;;;;;;;19.24;48.84;100760.44;3573652;40;20581;-77
2021/08/01 09:05:23;;;;;;;2.40;0.98;;;;;;;19.36;48.36;100778.28;3560940;40;20672;-77
2021/08/01 09:07:51;;;;;;;2.25;0.95;;;;;;;19.42;48.11;100782.38;3568781;40;20081;-77
2021/08/01 09:10:19;;;;;;;3.22;1.30;;;;;;;19.42;47.99;100767.34;3565658;40;20044;-78
2021/08/01 09:12:52;;;;;;;3.58;1.10;;;;;;;19.58;48.08;100769.09;3576417;40;20088;-78
2021/08/01 09:15:20;;;;;;;2.08;1.00;;;;;;;19.62;47.90;100776.81;3560396;40;20068;-78
2021/08/01 09:17:48;;;;;;;4.35;1.15;;;;;;;19.68;48.53;100780.88;3577243;40;20067;-77
2021/08/01 09:20:24;;;;;;;2.83;1.10;;;;;;;19.75;48.34;100784.84;3576917;40;20069;-78
2021/08/01 09:23:11;;;;;;;1.95;0.98;;;;;;;19.82;48.17;100785.34;3555401;40;20143;-77
2021/08/01 09:25:43;;;;;;;2.38;1.15;;;;;;;19.81;47.33;100792.44;3556536;40;20339;-78
2021/08/01 09:28:18;;;;;;;3.17;1.00;;;;;;;19.84;47.27;100789.63;3562520;40;20689;-77
2021/08/01 09:30:48;;;;;;;3.45;1.00;;;;;;;19.82;47.48;100788.88;3563390;40;20793;-78
2021/08/01 09:33:30;;;;;;;2.28;0.80;;;;;;;19.91;48.68;100787.44;3565311;40;20053;-77
2021/08/01 09:36:12;;;;;;;2.10;0.90;;;;;;;19.96;47.88;100788.88;3563714;40;20053;-77
2021/08/01 09:39:04;;;;;;;3.55;1.02;;;;;;;20.03;47.83;100788.50;3561191;40;20065;-78
2021/08/01 09:41:37;;;;;;;1.80;0.88;;;;;;;20.07;47.96;100787.34;3549269;40;20085;-77
2021/08/01 09:44:08;;;;;;;3.78;1.10;;;;;;;20.11;46.74;100788.88;3576786;40;20342;-78
2021/08/01 09:46:41;;;;;;;1.95;1.00;;;;;;;20.18;47.26;100800.84;3574235;40;20056;-77
2021/08/01 09:49:13;;;;;;;1.65;1.00;;;;;;;20.23;47.03;100792.59;3551842;40;20494;-77
2021/08/01 09:51:45;;;;;;;2.53;1.10;;;;;;;20.29;46.71;100793.06;3570619;40;20045;-77
2021/08/01 09:54:13;;;;;;;3.13;1.08;;;;;;;20.31;45.76;100791.16;3562386;40;20295;-77
2021/08/01 09:56:53;;;;;;;2.63;1.10;;;;;;;20.45;46.71;100799.13;3574777;40;20434;-77
2021/08/01 09:59:28;;;;;;;1.73;0.93;;;;;;;20.48;46.08;100803.44;3572154;40;20061;-77
2021/08/01 10:02:01;;;;;;;2.15;1.10;;;;;;;20.53;46.27;100803.13;3553698;40;20069;-78
2021/08/01 10:04:34;;;;;;;2.50;1.02;;;;;;;20.55;45.80;100799.44;3569023;40;20063;-78
2021/08/01 10:07:07;;;;;;;2.63;1.05;;;;;;;20.67;46.19;100814.56;3557346;40;20104;-78
2021/08/01 10:09:38;;;;;;;3.75;0.88;;;;;;;20.73;45.23;100808.03;3573487;40;20348;-78
2021/08/01 10:12:07;;;;;;;1.88;0.73;;;;;;;20.79;44.81;100807.66;3556596;40;20083;-78
2021/08/01 10:14:37;;;;;;;3.38;1.30;;;;;;;20.90;44.99;100810.47;3562177;40;20435;-77
2021/08/01 10:17:06;;;;;;;2.03;0.98;;;;;;;21.01;43.95;100800.97;3557867;40;20068;-78
2021/08/01 10:19:34;;;;;;;5.47;1.10;;;;;;;21.12;44.09;100811.72;3565560;40;20045;-77
2021/08/01 10:22:04;;;;;;;4.57;1.23;;;;;;;21.30;44.75;100807.03;3574149;40;20080;-78
2021/08/01 10:24:37;;;;;;;1.92;1.00;;;;;;;21.43;43.52;100808.78;3568372;40;20057;-80
2021/08/01 10:27:29;;;;;;;1.80;0.98;;;;;;;21.66;46.41;100814.41;3568542;40;20060;-78
2021/08/01 10:30:04;;;;;;;2.85;0.90;;;;;;;21.73;45.48;100805.03;3568800;40;20097;-78
2021/08/01 10:32:36;;;;;;;2.67;0.90;;;;;;;21.83;44.13;100806.13;3564161;40;20056;-77
2021/08/01 10:35:15;;;;;;;2.17;1.00;;;;;;;22.03;45.52;100813.59;3568309;40;20075;-79
2021/08/01 10:37:42;;;;;;;2.50;0.88;;;;;;;22.12;43.92;100817.47;3563961;40;20049;-79
2021/08/01 10:40:11;;;;;;;2.67;1.20;;;;;;;22.24;42.12;100799.78;3575105;40;20065;-79
2021/08/01 10:42:42;;;;;;;1.55;0.93;;;;;;;22.46;42.99;100807.97;3578035;40;20049;-78
2021/08/01 10:45:19;;;;;;;1.77;0.95;;;;;;;22.65;43.67;100804.84;3571312;40;20131;-79
2021/08/01 10:47:52;;;;;;;2.30;1.35;;;;;;;22.84;42.61;100808.84;3575624;40;20057;-79
2021/08/01 10:50:25;;;;;;;1.70;0.73;;;;;;;23.07;43.50;100815.22;3566272;40;20402;-79
2021/08/01 10:53:23;;;;;;;3.58;1.00;;;;;;;23.37;44.05;100802.28;3565070;40;20091;-79
2021/08/01 10:56:24;;;;;;;2.20;1.00;;;;;;;23.64;43.90;100810.06;3563308;40;20041;-79
2021/08/01 10:58:52;;;;;;;1.30;0.80;;;;;;;23.70;40.59;100804.25;3564037;40;20517;-79
2021/08/01 11:01:19;;;;;;;3.50;1.27;;;;;;;23.78;38.27;100811.69;3564256;40;20045;-78
2021/08/01 11:03:46;;;;;;;2.50;1.13;;;;;;;23.81;40.78;100800.75;3546229;40;20061;-79
2021/08/01 11:06:34;;;;;;;2.35;1.20;;;;;;;24.02;41.76;100804.44;3550301;40;20505;-79
2021/08/01 11:09:11;;;;;;;1.80;1.02;;;;;;;24.10;42.42;100811.84;3545828;40;20061;-78
2021/08/01 11:11:38;;;;;;;0.90;0.70;;;;;;;24.22;40.94;100804.72;3560696;40;20698;-79
2021/08/01 11:14:05;;;;;;;;;;;;;;;24.47;43.75;100809.84;3565740;40;20438;-79
2021/08/01 11:16:33;;;;;;;3.15;0.80;;;;;;;24.46;38.98;100809.97;3559226;40;19981;-78
2021/08/01 11:19:21;;;;;;;4.43;1.70;;;;;;;24.57;41.18;100813.47;3557739;40;20107;-78
2021/08/01 11:21:48;;;;;;;1.90;0.90;;;;;;;24.73;37.95;100797.06;3564192;40;20072;-79
2021/08/01 11:24:17;;;;;;;2.03;0.98;;;;;;;24.96;39.53;100797.91;3562398;40;20049;-77
2021/08/01 11:27:11;;;;;;;2.13;1.00;;;;;;;25.25;41.19;100802.72;3552857;40;20057;-79
2021/08/01 11:30:01;;;;;;;2.13;0.80;;;;;;;25.41;41.37;100805.81;3561299;40;20053;-78
2021/08/01 11:32:48;;;;;;;3.58;0.88;;;;;;;25.44;37.70;100800.19;3553703;40;20556;-79
2021/08/01 11:35:17;;;;;;;1.70;0.80;;;;;;;25.73;38.84;100800.41;3546131;40;20614;-78
2021/08/01 11:37:44;;;;;;;2.42;1.08;;;;;;;26.08;36.37;100794.75;3550041;40;20418;-78
2021/08/01 11:40:12;;;;;;;4.07;1.08;;;;;;;26.53;35.25;100799.78;3558726;40;20467;-78
2021/08/01 11:42:40;;;;;;;3.08;1.00;;;;;;;26.95;38.44;100804.13;3556306;40;20093;-79
2021/08/01 11:45:13;;;;;;;2.05;1.05;;;;;;;27.20;35.79;100802.78;3560648;40;20069;-79
2021/08/01 11:47:43;;;;;;;1.05;0.75;;;;;;;27.37;35.71;100796.72;3546933;40;20098;-79